Time;durP1;ratioP1;P1;durP2;ratioP2;P2;SDS_P1;SDS_P2;PMS_P1;PMS_P2;Temp;Humidity;BMP_temperature;BMP_pressure;BME280_temperature;BME280_humidity;BME280_pressure;Samples;Min_cycle;Max_cycle;Signal;HPM_P1;HPM_P2
2022/03/14 00:00:26;;;;;;;5.78;4.10;;;;;;;14.05;54.04;101678.31;4962190;28;20038;-54
2022/03/14 00:02:51;;;;;;;5.80;4.00;;;;;;;14.09;53.91;101682.72;4958825;28;20156;-56
2022/03/14 00:05:17;;;;;;;5.15;3.60;;;;;;;14.10;53.88;101677.50;4951803;28;20060;-56
2022/03/14 00:07:44;;;;;;;5.60;4.00;;;;;;;14.02;54.36;101680.91;4956816;28;20073;-55
2022/03/14 00:10:11;;;;;;;5.60;3.90;;;;;;;13.97;54.56;101682.56;4958980;28;20042;-54
2022/03/14 00:12:38;;;;;;;7.20;3.90;;;;;;;14.04;53.88;101674.78;4963967;28;20145;-56
2022/03/14 00:15:08;;;;;;;5.75;3.92;;;;;;;14.02;54.34;101680.91;4963603;28;20431;-55
2022/03/14 00:17:34;;;;;;;5.75;4.03;;;;;;;14.01;54.07;101687.88;4933148;28;20706;-54
2022/03/14 00:20:04;;;;;;;6.38;4.20;;;;;;;14.06;54.18;101690.56;4960468;28;20532;-53
2022/03/14 00:22:30;;;;;;;5.50;3.80;;;;;;;14.04;53.89;101687.91;4963851;28;20038;-51
2022/03/14 00:24:56;;;;;;;6.30;4.22;;;;;;;14.11;53.87;101699.34;4960413;28;20505;-54
2022/03/14 00:27:21;;;;;;;5.57;3.75;;;;;;;14.09;53.87;101688.84;4956403;28;20496;-54
2022/03/14 00:29:46;;;;;;;5.60;4.00;;;;;;;14.12;54.17;101699.38;4960341;28;20050;-55
2022/03/14 00:32:12;;;;;;;5.72;4.10;;;;;;;14.04;54.55;101693.16;4960251;28;20149;-52
2022/03/14 00:34:37;;;;;;;6.45;4.10;;;;;;;14.16;53.74;101697.66;4961546;28;20050;-53
2022/03/14 00:37:03;;;;;;;5.18;3.92;;;;;;;14.07;53.95;101692.31;4958167;28;20092;-53
2022/03/14 00:39:28;;;;;;;5.72;3.95;;;;;;;14.01;54.03;101698.38;4955531;28;20202;-54
2022/03/14 00:41:54;;;;;;;6.03;4.07;;;;;;;14.01;54.29;101710.59;4952641;28;20026;-54
2022/03/14 00:44:19;;;;;;;5.75;3.97;;;;;;;14.03;54.12;101714.09;4958989;28;20369;-53
2022/03/14 00:46:45;;;;;;;6.18;3.97;;;;;;;14.12;53.79;101701.13;4957974;28;20096;-56
2022/03/14 00:49:11;;;;;;;6.00;3.90;;;;;;;14.10;53.67;101711.56;4959064;28;20039;-55
2022/03/14 00:51:37;;;;;;;6.20;3.95;;;;;;;14.06;54.04;101717.66;4943057;28;22084;-55
2022/03/14 00:54:03;;;;;;;5.85;4.18;;;;;;;14.02;54.30;101722.84;4960281;28;20113;-56
2022/03/14 00:56:29;;;;;;;5.50;3.90;;;;;;;13.99;54.30;101718.44;4959890;28;20607;-54
2022/03/14 00:58:55;;;;;;;5.95;4.22;;;;;;;13.93;54.50;101717.47;4954484;28;20157;-52
2022/03/14 01:01:22;;;;;;;5.85;4.20;;;;;;;13.92;54.57;101724.44;4950196;28;20050;-54
2022/03/14 01:03:47;;;;;;;6.75;4.72;;;;;;;13.92;54.45;101720.94;4956988;28;20390;-55
2022/03/14 01:06:13;;;;;;;6.07;4.35;;;;;;;13.88;54.47;101727.91;4939063;28;20097;-52
2022/03/14 01:08:38;;;;;;;6.75;4.60;;;;;;;13.87;54.69;101720.91;4960256;28;20077;-53
2022/03/14 01:11:04;;;;;;;6.88;4.72;;;;;;;13.70;55.26;101732.91;4962640;28;20107;-53
2022/03/14 01:13:30;;;;;;;6.80;4.60;;;;;;;13.80;54.90;101740.00;4951091;28;20046;-54
2022/03/14 01:15:55;;;;;;;7.93;5.10;;;;;;;13.84;54.92;101738.34;4955191;28;20518;-54
2022/03/14 01:18:20;;;;;;;6.47;4.78;;;;;;;13.81;55.03;101734.81;4964085;28;20608;-53
2022/03/14 01:20:46;;;;;;;7.38;4.60;;;;;;;13.89;54.79;101736.66;4954226;28;20716;-54
2022/03/14 01:23:12;;;;;;;6.55;4.57;;;;;;;13.87;54.94;101740.97;4956388;28;20038;-56
2022/03/14 01:25:37;;;;;;;8.15;4.50;;;;;;;13.87;54.87;101740.97;4950191;28;20061;-55
2022/03/14 01:28:03;;;;;;;6.32;4.50;;;;;;;13.82;54.73;101749.69;4960953;28;20054;-55
2022/03/14 01:30:29;;;;;;;6.40;4.63;;;;;;;13.79;55.00;101749.63;4954465;28;20038;-57
2022/03/14 01:32:54;;;;;;;7.78;5.28;;;;;;;13.74;54.87;101751.28;4950468;28;20038;-55
2022/03/14 01:35:20;;;;;;;7.00;4.78;;;;;;;13.76;55.31;101749.59;4958616;28;20061;-56
2022/03/14 01:37:49;;;;;;;6.95;4.53;;;;;;;13.77;55.10;101756.59;4960083;28;20136;-55
2022/03/14 01:40:16;;;;;;;6.40;4.43;;;;;;;13.81;55.22;101754.88;4961912;28;20282;-53
2022/03/14 01:42:43;;;;;;;6.43;4.57;;;;;;;13.81;55.39;101758.41;4965115;28;20742;-53
2022/03/14 01:45:09;;;;;;;6.47;4.68;;;;;;;13.81;55.51;101757.50;4947489;28;20409;-52
2022/03/14 01:47:35;;;;;;;7.65;5.30;;;;;;;13.81;55.19;101763.63;4954154;28;20464;-56
2022/03/14 01:50:00;;;;;;;7.95;5.10;;;;;;;13.84;55.21;101765.44;4956756;28;20042;-55
2022/03/14 01:52:25;;;;;;;6.97;5.10;;;;;;;13.81;56.17;101774.13;4964921;28;20426;-54
2022/03/14 01:54:52;;;;;;;8.40;6.00;;;;;;;13.77;57.78;101779.31;4957813;28;20042;-55
2022/03/14 01:57:17;;;;;;;9.00;6.60;;;;;;;13.54;60.31;101780.69;4954334;28;21900;-59
2022/03/14 01:59:43;;;;;;;11.00;7.82;;;;;;;13.26;61.81;101785.47;4962228;28;20129;-56
2022/03/14 02:02:08;;;;;;;11.60;8.50;;;;;;;13.21;62.38;101787.13;4956176;28;20485;-56
2022/03/14 02:04:35;;;;;;;11.30;8.57;;;;;;;13.08;63.21;101794.72;4960586;28;20046;-56
2022/03/14 02:07:01;;;;;;;14.18;9.20;;;;;;;13.11;63.24;101800.00;4959124;28;20034;-55
2022/03/14 02:09:26;;;;;;;11.05;8.55;;;;;;;13.04;63.61;101804.25;4949604;28;20048;-55
2022/03/14 02:12:06;;;;;;;10.70;7.70;;;;;;;12.95;63.68;101806.69;4964763;28;20148;-56
2022/03/14 02:14:31;;;;;;;11.52;8.02;;;;;;;12.90;63.68;101805.72;4958675;28;20354;-55
2022/03/14 02:16:57;;;;;;;11.40;7.90;;;;;;;12.79;64.00;101802.03;4965661;28;20050;-55
2022/03/14 02:19:22;;;;;;;11.60;8.38;;;;;;;12.87;63.81;101817.00;4948047;28;20416;-54
2022/03/14 02:21:48;;;;;;;11.32;8.05;;;;;;;12.83;64.19;101825.66;4958891;28;20097;-50
2022/03/14 02:24:14;;;;;;;11.23;8.38;;;;;;;12.78;64.03;101829.94;4958977;28;20062;-54
2022/03/14 02:26:41;;;;;;;11.60;8.13;;;;;;;12.82;64.06;101838.72;4961485;28;20070;-54
2022/03/14 02:29:08;;;;;;;12.00;8.35;;;;;;;12.83;63.87;101833.50;4958704;28;20038;-53
2022/03/14 02:31:36;;;;;;;12.68;8.85;;;;;;;12.82;63.62;101838.72;4951155;28;20830;-55
2022/03/14 02:34:05;;;;;;;12.25;8.88;;;;;;;12.81;63.87;101840.44;4964899;28;20042;-55
2022/03/14 02:36:31;;;;;;;12.45;9.20;;;;;;;12.77;64.15;101849.09;4960286;28;20506;-56
2022/03/14 02:38:57;;;;;;;14.05;9.10;;;;;;;12.77;63.90;101845.59;4965089;28;20077;-56
2022/03/14 02:41:23;;;;;;;13.55;9.52;;;;;;;12.77;64.22;101849.09;4954865;28;20104;-52
2022/03/14 02:43:48;;;;;;;13.77;10.07;;;;;;;12.74;64.22;101850.78;4957736;28;20302;-56
2022/03/14 02:46:15;;;;;;;15.10;10.73;;;;;;;12.72;64.36;101849.84;4955503;28;20518;-56
2022/03/14 02:48:40;;;;;;;15.63;10.02;;;;;;;12.79;64.17;101849.13;4967056;28;20038;-55
2022/03/14 02:51:05;;;;;;;15.20;10.15;;;;;;;12.80;64.02;101859.63;4953438;28;20533;-54
2022/03/14 02:53:31;;;;;;;14.38;10.73;;;;;;;12.82;64.16;101862.25;4949827;28;20074;-55
2022/03/14 02:55:56;;;;;;;15.00;10.70;;;;;;;12.80;64.18;101857.03;4961194;28;20053;-53
2022/03/14 02:58:22;;;;;;;17.05;11.48;;;;;;;12.80;64.46;101857.03;4958508;28;20125;-53
2022/03/14 03:00:51;;;;;;;18.00;11.52;;;;;;;12.77;64.29;101861.28;4963659;28;20046;-54
2022/03/14 03:03:17;;;;;;;18.38;12.40;;;;;;;12.82;63.83;101872.72;4958712;28;20101;-59
2022/03/14 03:05:43;;;;;;;19.13;13.30;;;;;;;12.79;64.52;101875.31;4962303;28;20050;-51
2022/03/14 03:08:09;;;;;;;18.83;12.32;;;;;;;12.79;64.17;101881.41;4960186;28;20133;-56
2022/03/14 03:10:35;;;;;;;18.52;13.20;;;;;;;12.71;64.60;101883.00;4961379;28;20042;-53
2022/03/14 03:13:01;;;;;;;17.83;12.63;;;;;;;12.73;65.36;101891.75;4956734;28;20385;-54
2022/03/14 03:15:27;;;;;;;18.80;13.48;;;;;;;12.76;65.26;101889.19;4954085;28;20058;-53
2022/03/14 03:17:52;;;;;;;17.77;13.13;;;;;;;12.70;66.08;101891.69;4961179;28;20050;-54
2022/03/14 03:20:22;;;;;;;18.10;13.05;;;;;;;12.62;66.49;101895.00;4955366;28;20120;-52
2022/03/14 03:22:49;;;;;;;19.75;13.00;;;;;;;12.60;66.91;101898.47;4964070;28;20069;-52
2022/03/14 03:25:15;;;;;;;19.23;13.55;;;;;;;12.54;67.30;101913.16;4960429;28;20815;-53
2022/03/14 03:27:41;;;;;;;19.23;12.50;;;;;;;12.52;67.63;101915.72;4952564;28;20486;-52
2022/03/14 03:30:06;;;;;;;19.05;13.20;;;;;;;12.45;68.23;101918.16;4960571;28;20042;-54
2022/03/14 03:32:32;;;;;;;19.83;14.27;;;;;;;12.41;68.04;101917.22;4959218;28;20796;-55
2022/03/14 03:34:57;;;;;;;21.15;14.52;;;;;;;12.40;68.24;101919.78;4959437;28;20071;-54
2022/03/14 03:37:23;;;;;;;22.10;15.27;;;;;;;12.37;68.64;101924.97;4950258;28;20038;-55
2022/03/14 03:39:48;;;;;;;23.00;15.57;;;;;;;12.32;68.79;101926.59;4962025;28;20050;-54
2022/03/14 03:42:13;;;;;;;21.75;15.30;;;;;;;12.34;68.64;101935.34;4960832;28;20117;-55
2022/03/14 03:44:39;;;;;;;22.88;16.35;;;;;;;12.31;68.95;101937.91;4965319;28;20038;-53
2022/03/14 03:47:04;;;;;;;25.25;16.45;;;;;;;12.28;68.61;101946.53;4959309;28;20073;-56
2022/03/14 03:49:31;;;;;;;23.05;15.70;;;;;;;12.25;68.59;101949.09;4954094;28;20457;-51
2022/03/14 03:51:56;;;;;;;23.17;15.90;;;;;;;12.33;68.24;101959.72;4959074;28;20058;-54
2022/03/14 03:54:21;;;;;;;23.92;15.68;;;;;;;12.37;67.66;101961.59;4958451;28;20050;-54
2022/03/14 03:56:47;;;;;;;21.83;15.00;;;;;;;12.32;67.95;101965.81;4960743;28;20215;-54
2022/03/14 03:59:13;;;;;;;20.25;14.35;;;;;;;12.37;67.31;101969.44;4961578;28;20038;-53
2022/03/14 04:01:38;;;;;;;22.92;14.00;;;;;;;12.29;67.89;101973.59;4955607;28;20050;-54
2022/03/14 04:04:04;;;;;;;22.85;12.80;;;;;;;12.26;67.44;101977.00;4958143;28;20038;-51
2022/03/14 04:06:30;;;;;;;21.35;13.48;;;;;;;12.23;67.74;101994.34;4957682;28;20621;-51
2022/03/14 04:09:00;;;;;;;21.17;12.48;;;;;;;12.20;67.68;102003.88;4960242;28;20441;-54
2022/03/14 04:11:26;;;;;;;20.65;12.60;;;;;;;12.19;67.71;101998.63;4955935;28;20042;-52
2022/03/14 04:13:53;;;;;;;21.65;11.85;;;;;;;12.18;67.65;102002.97;4958382;28;20042;-51
2022/03/14 04:16:19;;;;;;;17.67;10.73;;;;;;;12.22;67.12;102006.53;4962289;28;20350;-51
2022/03/14 04:18:45;;;;;;;17.60;10.63;;;;;;;12.18;67.18;102017.78;4960340;28;20058;-52
2022/03/14 04:21:12;;;;;;;18.65;10.50;;;;;;;12.15;66.99;102015.06;4959843;28;20034;-50
2022/03/14 04:23:37;;;;;;;16.83;9.75;;;;;;;12.07;66.85;102020.13;4953080;28;20046;-52
2022/03/14 04:26:03;;;;;;;18.17;9.50;;;;;;;12.08;66.93;102016.63;4962940;28;20349;-55
2022/03/14 04:28:28;;;;;;;17.70;9.35;;;;;;;12.02;67.18;102031.28;4956913;28;20050;-55
2022/03/14 04:30:54;;;;;;;19.65;9.52;;;;;;;12.03;66.72;102043.50;4966616;28;20132;-55
2022/03/14 04:33:19;;;;;;;16.48;8.57;;;;;;;12.00;66.50;102048.66;4952539;28;20046;-58
2022/03/14 04:35:44;;;;;;;15.48;7.20;;;;;;;12.01;66.50;102064.41;4950223;28;20057;-54
2022/03/14 04:38:10;;;;;;;16.90;7.40;;;;;;;11.96;66.27;102068.59;4955081;28;20892;-52
2022/03/14 04:40:36;;;;;;;15.27;7.15;;;;;;;11.95;66.47;102068.59;4951003;28;20407;-50
2022/03/14 04:43:08;;;;;;;14.13;6.90;;;;;;;11.93;66.42;102072.88;4960482;28;20042;-52
2022/03/14 04:45:36;;;;;;;14.10;6.95;;;;;;;11.94;66.38;102082.47;4947828;28;20290;-50
2022/03/14 04:48:03;;;;;;;14.32;7.35;;;;;;;11.89;66.38;102076.25;4965969;28;20497;-52
2022/03/14 04:50:29;;;;;;;20.08;7.75;;;;;;;11.81;66.91;102085.59;4954157;28;20065;-51
2022/03/14 04:52:54;;;;;;;16.17;7.68;;;;;;;11.81;66.97;102096.06;4961570;28;20072;-55
2022/03/14 04:55:20;;;;;;;14.60;7.93;;;;;;;11.81;67.00;102098.66;4954996;28;20069;-52
2022/03/14 04:57:45;;;;;;;15.50;8.50;;;;;;;11.85;66.80;102106.63;4949794;28;20133;-52
2022/03/14 05:00:12;;;;;;;17.48;8.95;;;;;;;11.79;66.91;102102.13;4956792;28;20042;-54
2022/03/14 05:02:37;;;;;;;16.55;9.07;;;;;;;11.76;66.99;102115.13;4955985;28;20078;-51
2022/03/14 05:05:03;;;;;;;17.00;9.48;;;;;;;11.82;67.16;102119.63;4961612;28;20122;-53
2022/03/14 05:07:28;;;;;;;18.70;9.77;;;;;;;11.83;66.78;102123.13;4946913;28;20492;-53
2022/03/14 05:09:54;;;;;;;15.95;9.55;;;;;;;11.81;66.61;102127.41;4962605;28;20050;-56
2022/03/14 05:12:19;;;;;;;22.60;10.00;;;;;;;11.74;67.12;102131.56;4961512;28;20130;-51
2022/03/14 05:14:45;;;;;;;17.00;10.30;;;;;;;11.67;67.20;102132.19;4958727;28;20505;-54
2022/03/14 05:17:10;;;;;;;21.25;11.15;;;;;;;11.68;67.74;102144.41;4962042;28;20088;-55
2022/03/14 05:19:36;;;;;;;21.58;12.27;;;;;;;11.68;67.83;102145.31;4945566;28;20047;-51
2022/03/14 05:22:02;;;;;;;25.17;12.13;;;;;;;11.66;67.88;102149.59;4964420;28;20054;-53
2022/03/14 05:24:28;;;;;;;21.02;12.57;;;;;;;11.72;67.43;102152.38;4968069;28;20050;-51
2022/03/14 05:26:54;;;;;;;26.35;13.68;;;;;;;11.72;67.23;102157.59;4958054;28;20505;-52
2022/03/14 05:29:20;;;;;;;23.42;14.07;;;;;;;11.71;67.67;102161.06;4958071;28;20046;-56
2022/03/14 05:31:46;;;;;;;24.88;14.57;;;;;;;11.70;67.55;102164.53;4963144;28;20053;-53
2022/03/14 05:34:11;;;;;;;24.27;14.55;;;;;;;11.69;67.57;102159.25;4962139;28;20388;-54
2022/03/14 05:36:37;;;;;;;24.35;14.48;;;;;;;11.67;67.94;102166.16;4963206;28;20042;-54
2022/03/14 05:39:04;;;;;;;26.88;14.95;;;;;;;11.62;67.24;102167.75;4967389;28;20062;-56
2022/03/14 05:41:29;;;;;;;27.85;15.40;;;;;;;11.51;67.81;102167.44;4942275;28;20060;-55
2022/03/14 05:43:54;;;;;;;25.20;16.25;;;;;;;11.47;67.93;102169.88;4956912;28;20334;-52
2022/03/14 05:46:20;;;;;;;24.77;15.13;;;;;;;11.52;67.88;102176.16;4956963;28;20038;-54
2022/03/14 05:48:46;;;;;;;24.73;15.05;;;;;;;11.45;68.37;102169.88;4959467;28;20046;-53
2022/03/14 05:51:11;;;;;;;24.88;15.38;;;;;;;11.36;68.23;102186.13;4961581;28;20049;-53
2022/03/14 05:53:37;;;;;;;25.65;15.70;;;;;;;11.32;68.79;102186.00;4957832;28;22403;-53
2022/03/14 05:56:02;;;;;;;28.40;15.50;;;;;;;11.32;68.54;102186.00;4962856;28;20034;-54
2022/03/14 05:58:27;;;;;;;26.35;16.05;;;;;;;11.25;68.65;102191.84;4960509;28;20057;-53
2022/03/14 06:00:53;;;;;;;22.73;15.15;;;;;;;11.25;68.84;102195.34;4955567;28;20280;-56
2022/03/14 06:03:22;;;;;;;23.95;15.57;;;;;;;11.20;68.56;102194.31;4948475;28;20153;-59
2022/03/14 06:05:49;;;;;;;25.95;15.25;;;;;;;11.16;69.09;102202.88;4964737;28;20129;-55
2022/03/14 06:08:15;;;;;;;25.65;15.27;;;;;;;11.18;69.01;102214.25;4964935;28;20076;-53
2022/03/14 06:10:40;;;;;;;24.33;14.93;;;;;;;11.22;69.00;102221.34;4960273;28;20050;-51
2022/03/14 06:13:06;;;;;;;26.60;15.10;;;;;;;11.25;69.02;102231.00;4964705;28;20904;-52
2022/03/14 06:15:31;;;;;;;24.90;14.52;;;;;;;11.26;68.91;102224.97;4960148;28;20038;-54
2022/03/14 06:17:56;;;;;;;22.88;14.27;;;;;;;11.33;69.13;102242.59;4965984;28;20220;-55
2022/03/14 06:20:22;;;;;;;25.23;14.50;;;;;;;11.31;68.93;102241.66;4961999;28;20050;-52
2022/03/14 06:22:48;;;;;;;23.33;14.90;;;;;;;11.28;68.87;102252.00;4957149;28;20048;-53
2022/03/14 06:25:17;;;;;;;20.88;13.75;;;;;;;11.29;68.87;102248.53;4960299;28;20443;-54
2022/03/14 06:27:42;;;;;;;23.30;14.75;;;;;;;11.28;69.21;102249.41;4956420;28;20729;-52
2022/03/14 06:30:08;;;;;;;22.77;13.65;;;;;;;11.34;68.53;102258.28;4964816;28;20049;-55
2022/03/14 06:32:35;;;;;;;20.65;14.05;;;;;;;11.32;68.87;102262.59;4958530;28;20417;-52
2022/03/14 06:35:01;;;;;;;21.42;14.07;;;;;;;11.33;69.12;102263.50;4959779;28;20074;-53
2022/03/14 06:37:26;;;;;;;20.70;13.90;;;;;;;11.41;68.99;102261.97;4956839;28;20532;-53
2022/03/14 06:39:52;;;;;;;22.90;14.05;;;;;;;11.39;68.69;102256.75;4956494;28;20211;-54
2022/03/14 06:42:18;;;;;;;23.80;14.02;;;;;;;11.45;68.52;102271.72;4961008;28;20043;-51
2022/03/14 06:44:43;;;;;;;22.90;14.50;;;;;;;11.47;68.75;102276.97;4956753;28;20568;-52
2022/03/14 06:47:12;;;;;;;24.10;14.23;;;;;;;11.51;68.37;102276.25;4956101;28;20042;-54
2022/03/14 06:49:42;;;;;;;23.02;14.23;;;;;;;11.51;68.33;102281.47;4955577;28;21081;-54
2022/03/14 06:52:08;;;;;;;26.02;14.45;;;;;;;11.53;68.44;102295.44;4962032;28;20174;-54
2022/03/14 06:54:33;;;;;;;22.23;14.05;;;;;;;11.61;68.48;102297.47;4966285;28;20100;-53
2022/03/14 06:56:59;;;;;;;22.98;14.48;;;;;;;11.65;68.31;102303.66;4964589;28;20052;-54
2022/03/14 06:59:24;;;;;;;21.88;14.02;;;;;;;11.72;67.87;102303.91;4954449;28;20069;-56
2022/03/14 07:01:49;;;;;;;20.85;13.45;;;;;;;11.72;67.92;102303.91;4964896;28;20141;-54
2022/03/14 07:04:15;;;;;;;20.80;14.07;;;;;;;11.79;67.75;102302.41;4962303;28;20915;-52
2022/03/14 07:06:41;;;;;;;22.23;14.15;;;;;;;11.83;67.51;102301.69;4959413;28;20469;-55
2022/03/14 07:09:07;;;;;;;20.45;13.77;;;;;;;11.92;67.37;102301.06;4959947;28;20338;-52
2022/03/14 07:11:33;;;;;;;23.25;13.70;;;;;;;11.91;67.35;102312.34;4946840;28;20674;-55
2022/03/14 07:13:58;;;;;;;22.30;13.88;;;;;;;12.00;67.26;102304.81;4962998;28;20744;-54
2022/03/14 07:16:24;;;;;;;20.50;13.48;;;;;;;11.98;66.98;102304.75;4957242;28;20413;-54
2022/03/14 07:18:49;;;;;;;20.75;13.57;;;;;;;12.09;66.97;102316.41;4960076;28;20125;-53
2022/03/14 07:21:15;;;;;;;20.92;14.18;;;;;;;11.98;66.82;102307.38;4965936;28;20580;-55
2022/03/14 07:23:40;;;;;;;21.13;14.02;;;;;;;12.16;66.88;102317.50;4948054;28;20054;-53
2022/03/14 07:26:05;;;;;;;22.02;13.77;;;;;;;12.23;66.50;102321.19;4953744;28;20176;-55
2022/03/14 07:28:33;;;;;;;21.63;13.85;;;;;;;12.32;66.20;102322.31;4932476;28;20574;-54
2022/03/14 07:30:58;;;;;;;26.23;14.10;;;;;;;12.35;65.89;102327.66;4960295;28;20049;-53
2022/03/14 07:33:23;;;;;;;24.10;13.75;;;;;;;12.38;65.81;102322.50;4951397;28;20386;-55
2022/03/14 07:35:49;;;;;;;25.90;13.95;;;;;;;12.49;65.63;102322.81;4958784;28;20111;-53
2022/03/14 07:38:14;;;;;;;23.60;15.20;;;;;;;12.62;65.49;102332.81;4959843;28;20521;-58
2022/03/14 07:40:40;;;;;;;23.60;14.05;;;;;;;12.69;65.15;102324.25;4956298;28;20986;-56
2022/03/14 07:43:05;;;;;;;25.17;15.10;;;;;;;12.83;65.07;102330.75;4957534;28;20064;-53
2022/03/14 07:45:31;;;;;;;30.67;16.42;;;;;;;12.82;64.59;102335.94;4954590;28;20498;-56
2022/03/14 07:47:57;;;;;;;29.63;18.58;;;;;;;12.79;64.53;102336.78;4961557;28;20532;-54
2022/03/14 07:50:24;;;;;;;37.88;21.98;;;;;;;12.91;64.05;102344.06;4951248;28;20486;-53
2022/03/14 07:52:50;;;;;;;45.22;25.00;;;;;;;12.90;64.03;102342.28;4958652;28;20090;-53
2022/03/14 07:55:16;;;;;;;45.42;25.52;;;;;;;13.03;63.29;102347.00;4955714;28;20554;-53
2022/03/14 07:57:42;;;;;;;42.83;24.88;;;;;;;12.99;63.64;102353.03;4956875;28;20373;-55
2022/03/14 08:00:18;;;;;;;43.80;25.27;;;;;;;12.94;63.61;102354.59;4960817;28;20057;-53
2022/03/14 08:02:44;;;;;;;51.95;27.73;;;;;;;12.91;63.64;102371.13;4935482;28;20158;-52
2022/03/14 08:05:13;;;;;;;45.58;26.77;;;;;;;12.96;63.29;102374.75;4956355;28;20432;-57
2022/03/14 08:07:40;;;;;;;49.25;28.35;;;;;;;12.87;63.56;102381.44;4960558;28;20105;-52
2022/03/14 08:10:09;;;;;;;48.80;28.25;;;;;;;12.89;63.27;102392.84;4957783;28;20042;-57
2022/03/14 08:12:43;;;;;;;49.25;28.58;;;;;;;12.91;62.95;102392.06;4951697;28;20098;-56
2022/03/14 08:15:09;;;;;;;50.95;28.45;;;;;;;13.00;63.01;102399.28;4960496;28;20042;-54
2022/03/14 08:17:34;;;;;;;45.75;26.42;;;;;;;12.94;63.03;102402.63;4949499;28;20308;-54
2022/03/14 08:20:00;;;;;;;39.05;24.88;;;;;;;13.03;62.51;102402.00;4956737;28;20088;-54
2022/03/14 08:22:25;;;;;;;39.55;23.63;;;;;;;12.91;62.86;102399.03;4961616;28;20391;-55
2022/03/14 08:24:51;;;;;;;39.75;24.73;;;;;;;12.99;62.70;102405.38;4962102;28;20069;-56
2022/03/14 08:27:16;;;;;;;40.65;24.92;;;;;;;13.05;62.65;102421.25;4939469;28;20442;-56
2022/03/14 08:29:42;;;;;;;40.22;25.05;;;;;;;13.09;62.32;102411.75;4960688;28;20050;-55
2022/03/14 08:32:08;;;;;;;42.60;25.23;;;;;;;13.15;61.89;102418.06;4961189;28;20045;-55
2022/03/14 08:34:34;;;;;;;40.03;24.67;;;;;;;13.05;61.99;102426.50;4957488;28;20778;-56
2022/03/14 08:36:59;;;;;;;39.78;24.83;;;;;;;13.05;62.77;102425.59;4958887;28;20069;-55
2022/03/14 08:39:26;;;;;;;38.63;24.23;;;;;;;13.15;62.31;102430.28;4963331;28;20122;-56
2022/03/14 08:41:51;;;;;;;38.90;24.00;;;;;;;13.30;62.00;102433.28;4959785;28;20632;-55
2022/03/14 08:44:18;;;;;;;39.53;24.63;;;;;;;13.30;62.13;102436.81;4942219;28;20117;-56
2022/03/14 08:46:43;;;;;;;40.72;25.42;;;;;;;13.32;61.96;102439.47;4941297;28;20468;-54
2022/03/14 08:49:09;;;;;;;47.10;26.90;;;;;;;13.31;62.03;102442.94;4952669;28;20039;-57
2022/03/14 08:51:34;;;;;;;49.47;27.45;;;;;;;13.32;61.65;102442.09;4958669;28;20448;-52
2022/03/14 08:54:02;;;;;;;48.28;27.70;;;;;;;13.35;61.86;102448.31;4944695;28;20050;-54
2022/03/14 08:56:27;;;;;;;48.05;25.85;;;;;;;13.61;60.79;102458.56;4936780;28;20745;-55
2022/03/14 08:58:52;;;;;;;41.10;25.83;;;;;;;13.51;61.26;102462.72;4961752;28;20056;-55
2022/03/14 09:01:18;;;;;;;44.65;26.50;;;;;;;13.42;61.38;102469.44;4943548;28;20041;-53
2022/03/14 09:03:43;;;;;;;44.65;26.30;;;;;;;13.53;60.65;102473.22;4964751;28;20077;-50
2022/03/14 09:06:09;;;;;;;40.65;26.15;;;;;;;13.67;59.89;102474.47;4962296;28;20129;-52
2022/03/14 09:08:34;;;;;;;41.80;25.80;;;;;;;13.71;59.92;102472.00;4952536;28;20061;-54
2022/03/14 09:11:01;;;;;;;42.47;26.27;;;;;;;13.68;60.65;102474.50;4959905;28;20538;-55
2022/03/14 09:13:27;;;;;;;40.67;24.33;;;;;;;13.81;60.47;102476.59;4959905;28;20047;-53
2022/03/14 09:15:52;;;;;;;38.38;23.52;;;;;;;13.93;60.18;102472.50;4960714;28;20046;-54
2022/03/14 09:18:18;;;;;;;38.88;22.30;;;;;;;14.04;59.17;102485.03;4948448;28;20426;-59
2022/03/14 09:20:47;;;;;;;33.85;21.15;;;;;;;14.18;58.88;102485.38;4952767;28;21151;-54
2022/03/14 09:23:13;;;;;;;36.88;21.58;;;;;;;14.20;58.46;102483.69;4958233;28;20548;-54
2022/03/14 09:25:38;;;;;;;35.65;20.80;;;;;;;14.26;58.35;102486.47;4951937;28;20157;-52
2022/03/14 09:28:03;;;;;;;37.85;21.50;;;;;;;14.44;58.20;102489.56;4960207;28;20560;-54
2022/03/14 09:30:29;;;;;;;40.70;24.75;;;;;;;14.60;57.28;102490.78;4935349;28;20046;-54
2022/03/14 09:32:55;;;;;;;37.20;24.27;;;;;;;14.78;56.52;102485.94;4960261;28;20038;-52
2022/03/14 09:35:22;;;;;;;39.60;24.67;;;;;;;14.82;56.47;102493.00;4958350;28;20482;-53
2022/03/14 09:37:49;;;;;;;38.70;24.45;;;;;;;14.80;56.51;102500.00;4957823;28;20701;-53
2022/03/14 09:40:20;;;;;;;42.58;24.90;;;;;;;14.84;55.61;102495.69;4958229;28;20120;-51
2022/03/14 09:42:48;;;;;;;37.22;25.23;;;;;;;14.87;56.08;102503.63;4959411;28;20072;-51
2022/03/14 09:45:14;;;;;;;39.70;25.50;;;;;;;14.93;56.48;102512.53;4960790;28;20053;-52
2022/03/14 09:47:51;;;;;;;42.20;25.05;;;;;;;14.69;57.10;102513.75;4958318;28;20057;-54
2022/03/14 09:50:21;;;;;;;37.47;23.35;;;;;;;14.71;56.61;102522.50;4936211;28;20049;-61
2022/03/14 09:52:48;;;;;;;40.15;23.52;;;;;;;14.79;56.83;102520.97;4959807;28;20054;-51
2022/03/14 09:55:13;;;;;;;40.20;24.58;;;;;;;14.80;56.91;102528.88;4955028;28;20291;-54
2022/03/14 09:57:49;;;;;;;36.67;23.38;;;;;;;14.88;56.61;102521.19;4957841;28;20292;-53
2022/03/14 10:00:16;;;;;;;37.53;23.23;;;;;;;14.89;56.34;102521.19;4956037;28;20054;-55
2022/03/14 10:02:43;;;;;;;36.60;22.95;;;;;;;15.14;55.59;102519.06;4956756;28;20034;-54
2022/03/14 10:05:11;;;;;;;37.85;22.83;;;;;;;15.08;55.93;102530.34;4962510;28;20069;-54
2022/03/14 10:07:38;;;;;;;35.20;20.42;;;;;;;14.98;56.67;102531.00;4961839;28;20050;-52
2022/03/14 10:10:05;;;;;;;31.50;19.25;;;;;;;15.14;56.77;102533.09;4966165;28;20046;-54
2022/03/14 10:12:32;;;;;;;30.50;17.50;;;;;;;15.23;56.07;102542.94;4953802;28;20030;-53
2022/03/14 10:15:02;;;;;;;26.80;17.00;;;;;;;15.29;55.78;102541.31;4962710;28;20046;-54
2022/03/14 10:17:28;;;;;;;26.83;16.17;;;;;;;15.36;56.33;102537.97;4957700;28;20056;-55
2022/03/14 10:20:00;;;;;;;28.30;15.32;;;;;;;15.87;55.04;102536.31;4957020;28;20039;-54
2022/03/14 10:22:37;;;;;;;28.40;14.20;;;;;;;15.94;53.83;102543.47;4952842;28;20108;-51
2022/03/14 10:25:14;;;;;;;24.08;13.13;;;;;;;16.03;53.44;102548.91;4956413;28;20049;-51
2022/03/14 10:27:43;;;;;;;23.08;13.38;;;;;;;16.09;53.85;102551.63;4953113;28;20058;-54
2022/03/14 10:30:30;;;;;;;24.48;14.23;;;;;;;16.34;53.06;102550.31;4946009;28;20360;-56
2022/03/14 10:33:04;;;;;;;24.50;14.50;;;;;;;16.47;52.13;102552.25;4939937;28;20108;-50
2022/03/14 10:35:34;;;;;;;25.90;14.68;;;;;;;16.48;52.34;102561.91;4958348;28;20066;-53
2022/03/14 10:38:05;;;;;;;27.33;14.95;;;;;;;16.31;52.83;102571.28;4958802;28;20050;-54
2022/03/14 10:40:45;;;;;;;25.50;14.10;;;;;;;16.26;53.11;102580.88;4954232;28;20406;-49
2022/03/14 10:43:31;;;;;;;27.17;14.20;;;;;;;16.40;53.22;102571.47;4962468;28;20045;-53
2022/03/14 10:45:58;;;;;;;25.80;13.75;;;;;;;16.74;53.20;102568.50;4961233;28;20042;-55
2022/03/14 10:48:38;;;;;;;26.42;14.18;;;;;;;16.84;52.06;102569.53;4951084;28;20112;-54
2022/03/14 10:51:12;;;;;;;24.05;13.95;;;;;;;16.98;51.37;102571.50;4961558;28;20042;-54
2022/03/14 10:53:45;;;;;;;27.00;14.00;;;;;;;17.05;51.11;102585.66;4940095;28;20128;-52
2022/03/14 10:56:13;;;;;;;24.05;13.80;;;;;;;16.98;50.23;102578.53;4953491;28;20046;-54
2022/03/14 10:58:39;;;;;;;23.60;12.80;;;;;;;16.98;50.52;102582.03;4958304;28;20038;-54
2022/03/14 11:01:12;;;;;;;22.75;12.40;;;;;;;16.85;51.30;102592.38;4961408;28;20457;-53
2022/03/14 11:03:42;;;;;;;21.60;12.43;;;;;;;16.63;51.63;102591.19;4963014;28;20284;-51
2022/03/14 11:06:17;;;;;;;23.63;12.55;;;;;;;16.62;50.99;102606.09;4958500;28;20461;-53
2022/03/14 11:08:45;;;;;;;23.80;12.95;;;;;;;16.29;52.57;102609.84;4958214;28;20054;-54
2022/03/14 11:11:19;;;;;;;24.85;14.25;;;;;;;16.40;51.95;102617.09;4962613;28;20039;-53